sensor_id;sensor_type;location;lat;lon;timestamp;temperature;humidity
19920;DHT22;10122;50.074;19.920;2023-04-21T00:00:07;12.10;99.90
19920;DHT22;10122;50.074;19.920;2023-04-21T00:02:34;12.10;99.90
19920;DHT22;10122;50.074;19.920;2023-04-21T00:05:07;12.00;99.90
19920;DHT22;10122;50.074;19.920;2023-04-21T00:07:38;12.00;99.90
19920;DHT22;10122;50.074;19.920;2023-04-21T00:10:13;12.00;99.90
19920;DHT22;10122;50.074;19.920;2023-04-21T00:12:39;12.00;99.90
19920;DHT22;10122;50.074;19.920;2023-04-21T00:15:06;12.00;99.90
19920;DHT22;10122;50.074;19.920;2023-04-21T00:17:32;12.00;99.90
19920;DHT22;10122;50.074;19.920;2023-04-21T00:19:58;12.00;99.90
19920;DHT22;10122;50.074;19.920;2023-04-21T00:22:24;11.90;99.90
19920;DHT22;10122;50.074;19.920;2023-04-21T00:24:49;11.90;99.90
19920;DHT22;10122;50.074;19.920;2023-04-21T00:27:15;11.90;99.90
19920;DHT22;10122;50.074;19.920;2023-04-21T00:29:41;11.90;99.90
19920;DHT22;10122;50.074;19.920;2023-04-21T00:32:07;11.90;99.90
19920;DHT22;10122;50.074;19.920;2023-04-21T00:34:34;11.80;99.90
19920;DHT22;10122;50.074;19.920;2023-04-21T00:37:00;11.80;99.90
19920;DHT22;10122;50.074;19.920;2023-04-21T00:39:26;11.80;99.90
19920;DHT22;10122;50.074;19.920;2023-04-21T00:41:52;11.90;99.90
19920;DHT22;10122;50.074;19.920;2023-04-21T00:44:17;11.80;99.90
19920;DHT22;10122;50.074;19.920;2023-04-21T00:46:43;11.90;99.90
19920;DHT22;10122;50.074;19.920;2023-04-21T00:49:09;11.90;99.90
19920;DHT22;10122;50.074;19.920;2023-04-21T00:51:35;11.80;99.90
19920;DHT22;10122;50.074;19.920;2023-04-21T00:54:06;11.90;99.90
19920;DHT22;10122;50.074;19.920;2023-04-21T00:56:33;11.80;99.90
19920;DHT22;10122;50.074;19.920;2023-04-21T00:59:00;11.80;99.90
19920;DHT22;10122;50.074;19.920;2023-04-21T01:01:30;11.80;99.90
19920;DHT22;10122;50.074;19.920;2023-04-21T01:03:59;11.70;99.90
19920;DHT22;10122;50.074;19.920;2023-04-21T01:06:30;11.70;99.90
19920;DHT22;10122;50.074;19.920;2023-04-21T01:08:59;11.70;99.90
19920;DHT22;10122;50.074;19.920;2023-04-21T01:11:24;11.70;99.90
19920;DHT22;10122;50.074;19.920;2023-04-21T01:13:54;11.70;99.90
19920;DHT22;10122;50.074;19.920;2023-04-21T01:16:20;11.60;99.90
19920;DHT22;10122;50.074;19.920;2023-04-21T01:18:46;11.60;99.90
19920;DHT22;10122;50.074;19.920;2023-04-21T01:21:12;11.60;99.90
19920;DHT22;10122;50.074;19.920;2023-04-21T01:23:41;11.60;99.90
19920;DHT22;10122;50.074;19.920;2023-04-21T01:26:08;11.60;99.90
19920;DHT22;10122;50.074;19.920;2023-04-21T01:28:34;11.60;99.90
19920;DHT22;10122;50.074;19.920;2023-04-21T01:31:00;11.60;99.90
19920;DHT22;10122;50.074;19.920;2023-04-21T01:33:25;11.60;99.90
19920;DHT22;10122;50.074;19.920;2023-04-21T01:35:51;11.50;99.90
19920;DHT22;10122;50.074;19.920;2023-04-21T01:38:17;11.50;99.90
19920;DHT22;10122;50.074;19.920;2023-04-21T01:40:46;11.50;99.90
19920;DHT22;10122;50.074;19.920;2023-04-21T01:43:14;11.50;99.90
19920;DHT22;10122;50.074;19.920;2023-04-21T01:45:40;11.50;99.90
19920;DHT22;10122;50.074;19.920;2023-04-21T01:48:06;11.40;99.90
19920;DHT22;10122;50.074;19.920;2023-04-21T01:50:32;11.50;99.90
19920;DHT22;10122;50.074;19.920;2023-04-21T01:52:57;11.50;99.90
19920;DHT22;10122;50.074;19.920;2023-04-21T01:55:23;11.40;99.90
19920;DHT22;10122;50.074;19.920;2023-04-21T01:57:49;11.40;99.90
19920;DHT22;10122;50.074;19.920;2023-04-21T02:00:15;11.40;99.90
19920;DHT22;10122;50.074;19.920;2023-04-21T02:02:41;11.40;99.90
19920;DHT22;10122;50.074;19.920;2023-04-21T02:05:07;11.40;99.90
19920;DHT22;10122;50.074;19.920;2023-04-21T02:07:33;11.30;99.90
19920;DHT22;10122;50.074;19.920;2023-04-21T02:09:58;11.30;99.90
19920;DHT22;10122;50.074;19.920;2023-04-21T02:12:24;11.30;99.90
19920;DHT22;10122;50.074;19.920;2023-04-21T02:14:50;11.30;99.90
19920;DHT22;10122;50.074;19.920;2023-04-21T02:17:15;11.20;99.90
19920;DHT22;10122;50.074;19.920;2023-04-21T02:19:42;11.20;99.90
19920;DHT22;10122;50.074;19.920;2023-04-21T02:22:08;11.20;99.90
19920;DHT22;10122;50.074;19.920;2023-04-21T02:24:37;11.20;99.90
19920;DHT22;10122;50.074;19.920;2023-04-21T02:27:03;11.20;99.90
19920;DHT22;10122;50.074;19.920;2023-04-21T02:29:28;11.20;99.90
19920;DHT22;10122;50.074;19.920;2023-04-21T02:31:54;11.10;99.90
19920;DHT22;10122;50.074;19.920;2023-04-21T02:34:20;11.10;99.90
19920;DHT22;10122;50.074;19.920;2023-04-21T02:36:46;11.10;99.90
19920;DHT22;10122;50.074;19.920;2023-04-21T02:39:11;11.10;99.90
19920;DHT22;10122;50.074;19.920;2023-04-21T02:41:38;11.00;99.90
19920;DHT22;10122;50.074;19.920;2023-04-21T02:44:04;11.00;99.90
19920;DHT22;10122;50.074;19.920;2023-04-21T02:46:30;11.00;99.90
19920;DHT22;10122;50.074;19.920;2023-04-21T02:48:56;11.00;99.90
19920;DHT22;10122;50.074;19.920;2023-04-21T02:51:22;11.00;99.90
19920;DHT22;10122;50.074;19.920;2023-04-21T02:53:47;11.00;99.90
19920;DHT22;10122;50.074;19.920;2023-04-21T02:56:13;11.00;99.90
19920;DHT22;10122;50.074;19.920;2023-04-21T02:58:39;11.00;99.90
19920;DHT22;10122;50.074;19.920;2023-04-21T03:01:05;10.90;99.90
19920;DHT22;10122;50.074;19.920;2023-04-21T03:03:31;10.90;99.90
19920;DHT22;10122;50.074;19.920;2023-04-21T03:05:58;10.80;99.90
19920;DHT22;10122;50.074;19.920;2023-04-21T03:08:23;10.80;99.90
19920;DHT22;10122;50.074;19.920;2023-04-21T03:10:49;10.80;99.90
19920;DHT22;10122;50.074;19.920;2023-04-21T03:13:15;10.80;99.90
19920;DHT22;10122;50.074;19.920;2023-04-21T03:15:41;10.70;99.90
19920;DHT22;10122;50.074;19.920;2023-04-21T03:18:07;10.70;99.90
19920;DHT22;10122;50.074;19.920;2023-04-21T03:20:33;10.70;99.90
19920;DHT22;10122;50.074;19.920;2023-04-21T03:22:59;10.60;99.90
19920;DHT22;10122;50.074;19.920;2023-04-21T03:25:25;10.60;99.90
19920;DHT22;10122;50.074;19.920;2023-04-21T03:27:54;10.60;99.90
19920;DHT22;10122;50.074;19.920;2023-04-21T03:30:21;10.50;99.90
19920;DHT22;10122;50.074;19.920;2023-04-21T03:32:47;10.50;99.90
19920;DHT22;10122;50.074;19.920;2023-04-21T03:35:13;10.50;99.90
19920;DHT22;10122;50.074;19.920;2023-04-21T03:37:38;10.40;99.90
19920;DHT22;10122;50.074;19.920;2023-04-21T03:40:04;10.40;99.90
19920;DHT22;10122;50.074;19.920;2023-04-21T03:42:31;10.40;99.90
19920;DHT22;10122;50.074;19.920;2023-04-21T03:45:04;10.30;99.90
19920;DHT22;10122;50.074;19.920;2023-04-21T03:47:30;10.30;99.90
19920;DHT22;10122;50.074;19.920;2023-04-21T03:49:56;10.30;99.90
19920;DHT22;10122;50.074;19.920;2023-04-21T03:52:21;10.20;99.90
19920;DHT22;10122;50.074;19.920;2023-04-21T03:54:47;10.20;99.90
19920;DHT22;10122;50.074;19.920;2023-04-21T03:57:13;10.20;99.90
19920;DHT22;10122;50.074;19.920;2023-04-21T03:59:39;10.20;99.90
19920;DHT22;10122;50.074;19.920;2023-04-21T04:02:04;10.20;99.90
19920;DHT22;10122;50.074;19.920;2023-04-21T04:04:30;10.20;99.90
19920;DHT22;10122;50.074;19.920;2023-04-21T04:06:56;10.20;99.90
19920;DHT22;10122;50.074;19.920;2023-04-21T04:09:22;10.30;99.90
19920;DHT22;10122;50.074;19.920;2023-04-21T04:11:48;10.30;99.90
19920;DHT22;10122;50.074;19.920;2023-04-21T04:14:13;10.30;99.90
19920;DHT22;10122;50.074;19.920;2023-04-21T04:16:39;10.30;99.90
19920;DHT22;10122;50.074;19.920;2023-04-21T04:19:06;10.20;99.90
19920;DHT22;10122;50.074;19.920;2023-04-21T04:21:31;10.00;99.90
19920;DHT22;10122;50.074;19.920;2023-04-21T04:23:58;9.90;99.90
19920;DHT22;10122;50.074;19.920;2023-04-21T04:26:24;9.70;99.90
19920;DHT22;10122;50.074;19.920;2023-04-21T04:28:53;9.70;99.90
19920;DHT22;10122;50.074;19.920;2023-04-21T04:31:21;9.60;99.90
19920;DHT22;10122;50.074;19.920;2023-04-21T04:33:50;9.60;99.90
19920;DHT22;10122;50.074;19.920;2023-04-21T04:36:16;9.50;99.90
19920;DHT22;10122;50.074;19.920;2023-04-21T04:38:42;9.50;99.90
19920;DHT22;10122;50.074;19.920;2023-04-21T04:41:07;9.50;99.90
19920;DHT22;10122;50.074;19.920;2023-04-21T04:43:34;9.60;99.90
19920;DHT22;10122;50.074;19.920;2023-04-21T04:46:03;9.60;99.90
19920;DHT22;10122;50.074;19.920;2023-04-21T04:48:30;9.60;99.90
19920;DHT22;10122;50.074;19.920;2023-04-21T04:50:55;9.70;99.90
19920;DHT22;10122;50.074;19.920;2023-04-21T04:53:21;9.70;99.90
19920;DHT22;10122;50.074;19.920;2023-04-21T04:55:47;9.70;99.90
19920;DHT22;10122;50.074;19.920;2023-04-21T04:58:13;9.80;99.90
19920;DHT22;10122;50.074;19.920;2023-04-21T05:00:39;9.80;99.90
19920;DHT22;10122;50.074;19.920;2023-04-21T05:03:05;9.80;99.90
19920;DHT22;10122;50.074;19.920;2023-04-21T05:05:31;9.90;99.90
19920;DHT22;10122;50.074;19.920;2023-04-21T05:07:57;10.00;99.90
19920;DHT22;10122;50.074;19.920;2023-04-21T05:10:23;10.00;99.90
19920;DHT22;10122;50.074;19.920;2023-04-21T05:12:49;10.10;99.90
19920;DHT22;10122;50.074;19.920;2023-04-21T05:15:16;10.20;99.90
19920;DHT22;10122;50.074;19.920;2023-04-21T05:17:42;10.30;99.90
19920;DHT22;10122;50.074;19.920;2023-04-21T05:20:08;10.30;99.90
19920;DHT22;10122;50.074;19.920;2023-04-21T05:22:37;10.40;99.90
19920;DHT22;10122;50.074;19.920;2023-04-21T05:25:03;10.40;99.90
19920;DHT22;10122;50.074;19.920;2023-04-21T05:27:29;10.50;99.90
19920;DHT22;10122;50.074;19.920;2023-04-21T05:29:55;10.50;99.90
19920;DHT22;10122;50.074;19.920;2023-04-21T05:32:21;10.60;99.90
19920;DHT22;10122;50.074;19.920;2023-04-21T05:34:46;10.60;99.90
19920;DHT22;10122;50.074;19.920;2023-04-21T05:37:12;10.70;99.90
19920;DHT22;10122;50.074;19.920;2023-04-21T05:39:38;10.70;99.90
19920;DHT22;10122;50.074;19.920;2023-04-21T05:42:04;10.80;99.90
19920;DHT22;10122;50.074;19.920;2023-04-21T05:44:29;10.90;99.90
19920;DHT22;10122;50.074;19.920;2023-04-21T05:46:55;11.00;99.90
19920;DHT22;10122;50.074;19.920;2023-04-21T05:49:21;11.20;99.90
19920;DHT22;10122;50.074;19.920;2023-04-21T05:51:46;11.30;99.90
19920;DHT22;10122;50.074;19.920;2023-04-21T05:54:12;11.40;99.90
19920;DHT22;10122;50.074;19.920;2023-04-21T05:56:38;11.40;99.90
19920;DHT22;10122;50.074;19.920;2023-04-21T05:59:03;11.50;99.90
19920;DHT22;10122;50.074;19.920;2023-04-21T06:01:31;11.50;99.90
19920;DHT22;10122;50.074;19.920;2023-04-21T06:03:57;11.60;99.90
19920;DHT22;10122;50.074;19.920;2023-04-21T06:06:25;11.60;99.90
19920;DHT22;10122;50.074;19.920;2023-04-21T06:08:52;11.70;99.90
19920;DHT22;10122;50.074;19.920;2023-04-21T06:11:18;11.70;99.90
19920;DHT22;10122;50.074;19.920;2023-04-21T06:13:43;11.80;99.90
19920;DHT22;10122;50.074;19.920;2023-04-21T06:16:09;11.80;99.90
19920;DHT22;10122;50.074;19.920;2023-04-21T06:18:36;11.90;99.90
19920;DHT22;10122;50.074;19.920;2023-04-21T06:21:01;12.00;99.90
19920;DHT22;10122;50.074;19.920;2023-04-21T06:23:27;12.30;99.90
19920;DHT22;10122;50.074;19.920;2023-04-21T06:28:26;13.60;99.90
19920;DHT22;10122;50.074;19.920;2023-04-21T06:30:51;14.50;99.90
19920;DHT22;10122;50.074;19.920;2023-04-21T06:33:17;15.30;99.90
19920;DHT22;10122;50.074;19.920;2023-04-21T06:35:43;16.10;99.90
19920;DHT22;10122;50.074;19.920;2023-04-21T06:38:08;16.70;99.90
19920;DHT22;10122;50.074;19.920;2023-04-21T06:40:34;17.40;99.90
19920;DHT22;10122;50.074;19.920;2023-04-21T06:43:00;17.90;99.90
19920;DHT22;10122;50.074;19.920;2023-04-21T06:45:26;18.60;99.90
19920;DHT22;10122;50.074;19.920;2023-04-21T06:47:51;19.30;99.90
19920;DHT22;10122;50.074;19.920;2023-04-21T06:50:17;19.80;99.90
19920;DHT22;10122;50.074;19.920;2023-04-21T06:52:43;20.30;99.90
19920;DHT22;10122;50.074;19.920;2023-04-21T06:55:08;20.60;99.90
19920;DHT22;10122;50.074;19.920;2023-04-21T06:57:34;21.10;99.10
19920;DHT22;10122;50.074;19.920;2023-04-21T07:00:00;21.50;97.70
19920;DHT22;10122;50.074;19.920;2023-04-21T07:02:26;21.90;94.10
19920;DHT22;10122;50.074;19.920;2023-04-21T07:04:52;22.30;93.20
19920;DHT22;10122;50.074;19.920;2023-04-21T07:07:17;22.60;91.70
19920;DHT22;10122;50.074;19.920;2023-04-21T07:09:43;23.00;90.20
19920;DHT22;10122;50.074;19.920;2023-04-21T07:12:12;23.30;88.50
19920;DHT22;10122;50.074;19.920;2023-04-21T07:14:38;23.60;86.20
19920;DHT22;10122;50.074;19.920;2023-04-21T07:17:04;24.00;82.40
19920;DHT22;10122;50.074;19.920;2023-04-21T07:19:29;24.20;80.20
19920;DHT22;10122;50.074;19.920;2023-04-21T07:21:55;24.40;74.50
19920;DHT22;10122;50.074;19.920;2023-04-21T07:24:21;24.50;73.60
19920;DHT22;10122;50.074;19.920;2023-04-21T07:26:46;24.60;64.30
19920;DHT22;10122;50.074;19.920;2023-04-21T07:29:12;23.90;64.80
19920;DHT22;10122;50.074;19.920;2023-04-21T07:31:38;23.60;65.40
19920;DHT22;10122;50.074;19.920;2023-04-21T07:34:03;23.00;66.00
19920;DHT22;10122;50.074;19.920;2023-04-21T07:36:29;22.60;65.90
19920;DHT22;10122;50.074;19.920;2023-04-21T07:38:56;22.30;67.40
19920;DHT22;10122;50.074;19.920;2023-04-21T07:41:21;22.40;68.20
19920;DHT22;10122;50.074;19.920;2023-04-21T07:43:47;22.80;68.10
19920;DHT22;10122;50.074;19.920;2023-04-21T07:46:13;23.20;67.00
19920;DHT22;10122;50.074;19.920;2023-04-21T07:48:39;23.40;66.70
19920;DHT22;10122;50.074;19.920;2023-04-21T07:51:05;23.10;66.90
19920;DHT22;10122;50.074;19.920;2023-04-21T07:53:31;22.60;67.40
19920;DHT22;10122;50.074;19.920;2023-04-21T07:55:57;22.60;69.30
19920;DHT22;10122;50.074;19.920;2023-04-21T07:58:22;23.00;73.90
19920;DHT22;10122;50.074;19.920;2023-04-21T08:00:49;23.40;65.60
19920;DHT22;10122;50.074;19.920;2023-04-21T08:03:14;23.10;61.10
19920;DHT22;10122;50.074;19.920;2023-04-21T08:05:40;22.70;61.50
19920;DHT22;10122;50.074;19.920;2023-04-21T08:08:06;22.60;63.70
19920;DHT22;10122;50.074;19.920;2023-04-21T08:10:32;22.70;65.50
19920;DHT22;10122;50.074;19.920;2023-04-21T08:12:58;22.10;64.60
19920;DHT22;10122;50.074;19.920;2023-04-21T08:15:24;21.00;65.00
19920;DHT22;10122;50.074;19.920;2023-04-21T08:17:49;20.40;68.80
19920;DHT22;10122;50.074;19.920;2023-04-21T08:20:16;20.20;71.10
19920;DHT22;10122;50.074;19.920;2023-04-21T08:22:51;20.40;69.80
19920;DHT22;10122;50.074;19.920;2023-04-21T08:25:17;20.50;69.20
19920;DHT22;10122;50.074;19.920;2023-04-21T08:27:42;20.40;70.40
19920;DHT22;10122;50.074;19.920;2023-04-21T08:30:08;20.20;70.00
19920;DHT22;10122;50.074;19.920;2023-04-21T08:32:34;20.30;70.00
19920;DHT22;10122;50.074;19.920;2023-04-21T08:35:00;20.40;72.10
19920;DHT22;10122;50.074;19.920;2023-04-21T08:37:26;20.60;70.50
19920;DHT22;10122;50.074;19.920;2023-04-21T08:39:51;20.90;68.30
19920;DHT22;10122;50.074;19.920;2023-04-21T08:42:19;21.00;66.20
19920;DHT22;10122;50.074;19.920;2023-04-21T08:44:45;20.70;67.50
19920;DHT22;10122;50.074;19.920;2023-04-21T08:47:13;20.60;67.70
19920;DHT22;10122;50.074;19.920;2023-04-21T08:49:40;20.60;68.80
19920;DHT22;10122;50.074;19.920;2023-04-21T08:52:07;20.60;67.00
19920;DHT22;10122;50.074;19.920;2023-04-21T08:54:33;20.50;68.00
19920;DHT22;10122;50.074;19.920;2023-04-21T08:57:01;20.50;67.60
19920;DHT22;10122;50.074;19.920;2023-04-21T08:59:28;20.30;67.20
19920;DHT22;10122;50.074;19.920;2023-04-21T09:04:49;20.40;66.90
19920;DHT22;10122;50.074;19.920;2023-04-21T09:07:35;20.10;65.70
19920;DHT22;10122;50.074;19.920;2023-04-21T09:10:02;20.10;66.50
19920;DHT22;10122;50.074;19.920;2023-04-21T09:12:29;20.00;67.50
19920;DHT22;10122;50.074;19.920;2023-04-21T09:14:55;20.30;69.80
19920;DHT22;10122;50.074;19.920;2023-04-21T09:17:27;20.40;61.50
19920;DHT22;10122;50.074;19.920;2023-04-21T09:19:57;20.60;63.40
19920;DHT22;10122;50.074;19.920;2023-04-21T09:22:26;20.60;62.10
19920;DHT22;10122;50.074;19.920;2023-04-21T09:24:57;20.60;64.90
19920;DHT22;10122;50.074;19.920;2023-04-21T09:27:24;20.80;65.60
19920;DHT22;10122;50.074;19.920;2023-04-21T09:29:50;20.90;64.10
19920;DHT22;10122;50.074;19.920;2023-04-21T09:32:17;21.00;61.10
19920;DHT22;10122;50.074;19.920;2023-04-21T09:34:44;20.90;58.70
19920;DHT22;10122;50.074;19.920;2023-04-21T09:37:11;20.60;56.60
19920;DHT22;10122;50.074;19.920;2023-04-21T09:39:37;20.30;59.70
19920;DHT22;10122;50.074;19.920;2023-04-21T09:42:03;20.30;61.00
19920;DHT22;10122;50.074;19.920;2023-04-21T09:44:29;20.30;60.70
19920;DHT22;10122;50.074;19.920;2023-04-21T09:47:00;20.10;59.70
19920;DHT22;10122;50.074;19.920;2023-04-21T09:49:30;20.20;59.70
19920;DHT22;10122;50.074;19.920;2023-04-21T09:51:59;20.30;57.30
19920;DHT22;10122;50.074;19.920;2023-04-21T09:54:30;20.50;58.30
19920;DHT22;10122;50.074;19.920;2023-04-21T09:57:03;20.90;59.50
19920;DHT22;10122;50.074;19.920;2023-04-21T09:59:37;21.10;56.80
19920;DHT22;10122;50.074;19.920;2023-04-21T10:02:06;20.60;55.30
19920;DHT22;10122;50.074;19.920;2023-04-21T10:04:33;20.00;57.10
19920;DHT22;10122;50.074;19.920;2023-04-21T10:06:59;19.70;58.50
19920;DHT22;10122;50.074;19.920;2023-04-21T10:09:34;19.80;60.10
19920;DHT22;10122;50.074;19.920;2023-04-21T10:12:02;19.90;57.50
19920;DHT22;10122;50.074;19.920;2023-04-21T10:14:28;19.80;56.40
19920;DHT22;10122;50.074;19.920;2023-04-21T10:17:12;20.00;55.90
19920;DHT22;10122;50.074;19.920;2023-04-21T10:19:48;20.10;56.90
19920;DHT22;10122;50.074;19.920;2023-04-21T10:22:25;20.10;54.90
19920;DHT22;10122;50.074;19.920;2023-04-21T10:24:54;19.80;53.50
19920;DHT22;10122;50.074;19.920;2023-04-21T10:27:41;19.40;53.50
19920;DHT22;10122;50.074;19.920;2023-04-21T10:30:21;19.30;55.00
19920;DHT22;10122;50.074;19.920;2023-04-21T10:32:47;19.80;55.20
19920;DHT22;10122;50.074;19.920;2023-04-21T10:35:21;20.00;54.40
19920;DHT22;10122;50.074;19.920;2023-04-21T10:37:48;20.20;55.50
19920;DHT22;10122;50.074;19.920;2023-04-21T10:40:32;20.40;54.30
19920;DHT22;10122;50.074;19.920;2023-04-21T10:43:02;20.60;54.60
19920;DHT22;10122;50.074;19.920;2023-04-21T10:45:27;20.60;54.50
19920;DHT22;10122;50.074;19.920;2023-04-21T10:47:54;20.50;55.30
19920;DHT22;10122;50.074;19.920;2023-04-21T10:50:28;20.30;54.90
19920;DHT22;10122;50.074;19.920;2023-04-21T10:53:07;19.90;53.90
19920;DHT22;10122;50.074;19.920;2023-04-21T10:55:37;19.60;55.60
19920;DHT22;10122;50.074;19.920;2023-04-21T10:58:05;19.30;54.80
19920;DHT22;10122;50.074;19.920;2023-04-21T11:00:31;19.20;54.80
19920;DHT22;10122;50.074;19.920;2023-04-21T11:03:02;19.10;55.20
19920;DHT22;10122;50.074;19.920;2023-04-21T11:05:35;19.20;55.50
19920;DHT22;10122;50.074;19.920;2023-04-21T11:08:04;19.40;56.10
19920;DHT22;10122;50.074;19.920;2023-04-21T11:10:41;19.30;56.00
19920;DHT22;10122;50.074;19.920;2023-04-21T11:13:07;19.10;56.10
19920;DHT22;10122;50.074;19.920;2023-04-21T11:15:33;19.00;57.30
19920;DHT22;10122;50.074;19.920;2023-04-21T11:17:58;18.90;57.40
19920;DHT22;10122;50.074;19.920;2023-04-21T11:20:24;19.10;59.00
19920;DHT22;10122;50.074;19.920;2023-04-21T11:22:55;19.30;56.80
19920;DHT22;10122;50.074;19.920;2023-04-21T11:25:21;19.30;57.10
19920;DHT22;10122;50.074;19.920;2023-04-21T11:27:54;19.10;57.50
19920;DHT22;10122;50.074;19.920;2023-04-21T11:30:21;19.00;57.80
19920;DHT22;10122;50.074;19.920;2023-04-21T11:32:55;18.90;58.10
19920;DHT22;10122;50.074;19.920;2023-04-21T11:35:20;18.90;58.60
19920;DHT22;10122;50.074;19.920;2023-04-21T11:37:49;19.00;59.50
19920;DHT22;10122;50.074;19.920;2023-04-21T11:40:17;19.10;58.10
19920;DHT22;10122;50.074;19.920;2023-04-21T11:42:43;18.90;58.40
19920;DHT22;10122;50.074;19.920;2023-04-21T11:45:16;19.00;57.90
19920;DHT22;10122;50.074;19.920;2023-04-21T11:47:43;19.40;59.30
19920;DHT22;10122;50.074;19.920;2023-04-21T11:50:09;19.40;56.90
19920;DHT22;10122;50.074;19.920;2023-04-21T11:52:35;19.30;56.80
19920;DHT22;10122;50.074;19.920;2023-04-21T11:55:09;19.30;56.60
19920;DHT22;10122;50.074;19.920;2023-04-21T11:57:35;19.60;57.40
19920;DHT22;10122;50.074;19.920;2023-04-21T12:00:04;19.50;56.90
19920;DHT22;10122;50.074;19.920;2023-04-21T12:02:33;19.40;56.20
19920;DHT22;10122;50.074;19.920;2023-04-21T12:05:09;19.30;56.70
19920;DHT22;10122;50.074;19.920;2023-04-21T12:07:40;19.20;58.00
19920;DHT22;10122;50.074;19.920;2023-04-21T12:10:13;19.40;57.50
19920;DHT22;10122;50.074;19.920;2023-04-21T12:12:40;19.70;58.50
19920;DHT22;10122;50.074;19.920;2023-04-21T12:15:07;20.10;57.00
19920;DHT22;10122;50.074;19.920;2023-04-21T12:17:53;20.30;55.30
19920;DHT22;10122;50.074;19.920;2023-04-21T12:20:24;20.40;57.40
19920;DHT22;10122;50.074;19.920;2023-04-21T12:22:50;20.50;56.40
19920;DHT22;10122;50.074;19.920;2023-04-21T12:25:17;20.40;55.30
19920;DHT22;10122;50.074;19.920;2023-04-21T12:27:50;20.10;54.90
19920;DHT22;10122;50.074;19.920;2023-04-21T12:30:17;19.90;55.40
19920;DHT22;10122;50.074;19.920;2023-04-21T12:32:43;19.70;55.60
19920;DHT22;10122;50.074;19.920;2023-04-21T12:35:09;19.50;55.00
19920;DHT22;10122;50.074;19.920;2023-04-21T12:37:35;19.30;53.50
19920;DHT22;10122;50.074;19.920;2023-04-21T12:40:01;19.00;54.10
19920;DHT22;10122;50.074;19.920;2023-04-21T12:42:26;19.10;55.60
19920;DHT22;10122;50.074;19.920;2023-04-21T12:44:53;19.40;54.30
19920;DHT22;10122;50.074;19.920;2023-04-21T12:47:19;19.60;54.30
19920;DHT22;10122;50.074;19.920;2023-04-21T12:49:45;19.70;54.60
19920;DHT22;10122;50.074;19.920;2023-04-21T12:52:10;20.00;55.00
19920;DHT22;10122;50.074;19.920;2023-04-21T12:54:36;20.20;53.60
19920;DHT22;10122;50.074;19.920;2023-04-21T12:57:02;20.40;52.90
19920;DHT22;10122;50.074;19.920;2023-04-21T12:59:27;20.10;52.10
19920;DHT22;10122;50.074;19.920;2023-04-21T13:01:53;19.80;52.30
19920;DHT22;10122;50.074;19.920;2023-04-21T13:04:20;19.60;51.90
19920;DHT22;10122;50.074;19.920;2023-04-21T13:06:45;19.50;52.70
19920;DHT22;10122;50.074;19.920;2023-04-21T13:09:11;19.60;51.70
19920;DHT22;10122;50.074;19.920;2023-04-21T13:11:37;19.40;50.90
19920;DHT22;10122;50.074;19.920;2023-04-21T13:14:02;19.40;51.40
19920;DHT22;10122;50.074;19.920;2023-04-21T13:16:29;19.40;51.40
19920;DHT22;10122;50.074;19.920;2023-04-21T13:18:55;19.60;51.70
19920;DHT22;10122;50.074;19.920;2023-04-21T13:21:21;19.70;51.80
19920;DHT22;10122;50.074;19.920;2023-04-21T13:23:47;19.70;52.40
19920;DHT22;10122;50.074;19.920;2023-04-21T13:26:13;19.80;52.00
19920;DHT22;10122;50.074;19.920;2023-04-21T13:28:39;19.70;52.40
19920;DHT22;10122;50.074;19.920;2023-04-21T13:31:05;19.70;53.00
19920;DHT22;10122;50.074;19.920;2023-04-21T13:33:32;19.70;53.00
19920;DHT22;10122;50.074;19.920;2023-04-21T13:36:00;19.50;51.80
19920;DHT22;10122;50.074;19.920;2023-04-21T13:38:26;19.50;53.10
19920;DHT22;10122;50.074;19.920;2023-04-21T13:40:52;19.80;53.90
19920;DHT22;10122;50.074;19.920;2023-04-21T13:43:18;19.80;52.10
19920;DHT22;10122;50.074;19.920;2023-04-21T13:45:44;19.80;53.70
19920;DHT22;10122;50.074;19.920;2023-04-21T13:48:11;19.90;52.30
19920;DHT22;10122;50.074;19.920;2023-04-21T13:50:37;19.80;54.00
19920;DHT22;10122;50.074;19.920;2023-04-21T13:53:03;19.80;52.40
19920;DHT22;10122;50.074;19.920;2023-04-21T13:55:28;20.00;52.90
19920;DHT22;10122;50.074;19.920;2023-04-21T13:57:54;20.10;53.00
19920;DHT22;10122;50.074;19.920;2023-04-21T14:00:20;20.30;53.70
19920;DHT22;10122;50.074;19.920;2023-04-21T14:02:46;20.50;55.00
19920;DHT22;10122;50.074;19.920;2023-04-21T14:05:12;20.30;53.50
19920;DHT22;10122;50.074;19.920;2023-04-21T14:07:38;20.10;52.40
19920;DHT22;10122;50.074;19.920;2023-04-21T14:10:04;19.70;52.30
19920;DHT22;10122;50.074;19.920;2023-04-21T14:12:30;19.00;53.20
19920;DHT22;10122;50.074;19.920;2023-04-21T14:14:56;19.10;52.80
19920;DHT22;10122;50.074;19.920;2023-04-21T14:17:21;18.80;52.10
19920;DHT22;10122;50.074;19.920;2023-04-21T14:19:47;18.50;51.80
19920;DHT22;10122;50.074;19.920;2023-04-21T14:22:13;18.60;51.70
19920;DHT22;10122;50.074;19.920;2023-04-21T14:24:39;18.70;51.20
19920;DHT22;10122;50.074;19.920;2023-04-21T14:27:04;18.60;51.40
19920;DHT22;10122;50.074;19.920;2023-04-21T14:29:30;18.70;51.60
19920;DHT22;10122;50.074;19.920;2023-04-21T14:31:56;18.70;51.40
19920;DHT22;10122;50.074;19.920;2023-04-21T14:34:24;18.70;50.60
19920;DHT22;10122;50.074;19.920;2023-04-21T14:36:52;18.70;50.40
19920;DHT22;10122;50.074;19.920;2023-04-21T14:39:18;18.80;51.40
19920;DHT22;10122;50.074;19.920;2023-04-21T14:41:44;18.80;50.10
19920;DHT22;10122;50.074;19.920;2023-04-21T14:44:10;18.80;50.00
19920;DHT22;10122;50.074;19.920;2023-04-21T14:46:36;18.90;51.30
19920;DHT22;10122;50.074;19.920;2023-04-21T14:49:03;19.00;50.50
19920;DHT22;10122;50.074;19.920;2023-04-21T14:51:28;18.80;51.40
19920;DHT22;10122;50.074;19.920;2023-04-21T14:53:56;18.90;51.00
19920;DHT22;10122;50.074;19.920;2023-04-21T14:56:22;18.90;50.70
19920;DHT22;10122;50.074;19.920;2023-04-21T14:58:47;18.90;50.70
19920;DHT22;10122;50.074;19.920;2023-04-21T15:01:13;18.80;51.30
19920;DHT22;10122;50.074;19.920;2023-04-21T15:03:39;18.50;51.10
19920;DHT22;10122;50.074;19.920;2023-04-21T15:06:05;18.40;51.90
19920;DHT22;10122;50.074;19.920;2023-04-21T15:08:30;18.40;51.80
19920;DHT22;10122;50.074;19.920;2023-04-21T15:10:56;18.30;51.90
19920;DHT22;10122;50.074;19.920;2023-04-21T15:13:22;18.00;51.30
19920;DHT22;10122;50.074;19.920;2023-04-21T15:15:48;18.10;52.10
19920;DHT22;10122;50.074;19.920;2023-04-21T15:18:16;18.30;52.10
19920;DHT22;10122;50.074;19.920;2023-04-21T15:20:41;18.40;51.30